Time;durP1;ratioP1;P1;durP2;ratioP2;P2;SDS_P1;SDS_P2;PMS_P1;PMS_P2;Temp;Humidity;BMP_temperature;BMP_pressure;BME280_temperature;BME280_humidity;BME280_pressure;Samples;Min_cycle;Max_cycle;Signal;HPM_P1;HPM_P2
2023/07/15 00:00:54;;;;;;;2.37;2.27;;;25.10;51.60;;;;;;4886930;29;20866;-82
2023/07/15 00:03:20;;;;;;;2.60;2.60;;;25.10;51.50;;;;;;4890174;29;20456;-83
2023/07/15 00:09:09;;;;;;;2.60;2.60;;;25.00;51.40;;;;;;4890591;29;20536;-89
2023/07/15 00:14:59;;;;;;;2.53;2.53;;;25.00;51.60;;;;;;4890981;29;20456;-88
2023/07/15 00:17:25;;;;;;;2.90;2.70;;;24.90;51.80;;;;;;4875076;29;20437;-89
2023/07/15 00:19:50;;;;;;;2.50;2.40;;;24.90;51.80;;;;;;4875334;29;20492;-89
2023/07/15 00:22:16;;;;;;;3.13;2.87;;;25.00;51.60;;;;;;4890274;29;20200;-86
2023/07/15 00:24:42;;;;;;;2.60;2.40;;;25.00;51.70;;;;;;4874427;29;20244;-86
2023/07/15 00:27:08;;;;;;;2.37;2.27;;;24.90;51.80;;;;;;4899893;29;20208;-86
2023/07/15 00:29:34;;;;;;;3.80;2.80;;;25.00;51.70;;;;;;4898158;29;20254;-88
2023/07/15 00:32:04;;;;;;;2.50;2.50;;;25.00;51.90;;;;;;4892644;29;20481;-85
2023/07/15 00:34:30;;;;;;;2.93;2.70;;;24.90;51.90;;;;;;4878609;29;20172;-85
2023/07/15 00:36:56;;;;;;;2.63;2.63;;;25.00;51.70;;;;;;4900064;29;20568;-87
2023/07/15 00:39:22;;;;;;;2.63;2.43;;;25.00;51.70;;;;;;4895441;29;20461;-86
2023/07/15 00:41:48;;;;;;;2.70;2.70;;;25.00;51.70;;;;;;4878254;29;20200;-84
2023/07/15 00:44:16;;;;;;;3.30;2.30;;;24.90;51.90;;;;;;4872860;29;20208;-89
2023/07/15 00:47:12;;;;;;;2.60;2.50;;;24.80;52.00;;;;;;4875607;29;20211;-89
2023/07/15 00:49:38;;;;;;;2.37;2.27;;;24.80;51.90;;;;;;4892047;29;20420;-89
2023/07/15 00:52:11;;;;;;;2.53;2.30;;;24.80;51.80;;;;;;4890217;29;20506;-89
2023/07/15 00:54:44;;;;;;;2.63;2.53;;;24.90;51.80;;;;;;4887119;29;20543;-86
2023/07/15 00:57:11;;;;;;;3.17;2.40;;;25.00;51.70;;;;;;4889131;29;20491;-89
2023/07/15 00:59:39;;;;;;;4.00;2.67;;;25.00;51.40;;;;;;4891270;29;20459;-88
2023/07/15 01:02:05;;;;;;;2.40;2.30;;;25.10;51.80;;;;;;4888163;29;20932;-88
2023/07/15 01:04:30;;;;;;;2.50;2.40;;;24.80;52.30;;;;;;4873589;29;20448;-90
2023/07/15 01:06:56;;;;;;;2.10;2.07;;;24.70;52.40;;;;;;4891304;29;20960;-89
2023/07/15 01:09:25;;;;;;;3.03;2.83;;;24.70;52.40;;;;;;4872826;29;20218;-88
2023/07/15 01:11:50;;;;;;;4.20;2.90;;;24.80;52.10;;;;;;4900205;29;20260;-89
2023/07/15 01:14:16;;;;;;;3.10;3.00;;;24.70;51.80;;;;;;4874186;29;20495;-86
2023/07/15 01:16:41;;;;;;;2.83;2.73;;;24.80;52.10;;;;;;4874709;29;20707;-86
2023/07/15 01:19:07;;;;;;;2.80;2.70;;;24.70;52.40;;;;;;4876443;29;20224;-88
2023/07/15 01:21:36;;;;;;;2.40;2.40;;;24.70;52.40;;;;;;4892887;29;20217;-87
2023/07/15 01:24:03;;;;;;;3.00;2.80;;;24.70;52.50;;;;;;4901192;29;20541;-87
2023/07/15 01:26:29;;;;;;;2.77;2.77;;;24.50;52.80;;;;;;4912523;23;20499;-73
2023/07/15 01:28:55;;;;;;;2.53;2.43;;;24.50;53.00;;;;;;4891591;29;20470;-73
2023/07/15 01:31:21;;;;;;;2.87;2.77;;;24.30;53.20;;;;;;4887778;29;20473;-73
2023/07/15 01:33:51;;;;;;;3.30;3.10;;;24.50;52.70;;;;;;4887256;29;20197;-73
2023/07/15 01:36:17;;;;;;;2.80;2.63;;;24.50;52.80;;;;;;4890855;29;20455;-74
2023/07/15 01:38:43;;;;;;;3.27;3.17;;;24.50;52.70;;;;;;4887924;29;20444;-74
2023/07/15 01:41:09;;;;;;;3.80;3.53;;;24.50;52.70;;;;;;4891583;29;20816;-72
2023/07/15 01:43:35;;;;;;;3.60;3.30;;;24.60;52.40;;;;;;4887859;29;20197;-73
2023/07/15 01:52:45;;;;;;;3.97;3.67;;;24.60;52.30;;;;;;4885648;29;21253;-74
2023/07/15 02:05:17;;;;;;;2.50;2.50;;;24.70;52.60;;;;;;4883121;29;20648;-73
2023/07/15 02:07:43;;;;;;;3.17;3.10;;;24.70;52.60;;;;;;4886701;29;20559;-73
2023/07/15 02:10:09;;;;;;;3.07;2.97;;;24.80;52.80;;;;;;4889636;29;20179;-72
2023/07/15 02:12:35;;;;;;;3.10;2.80;;;24.90;52.60;;;;;;4890070;29;20197;-73
2023/07/15 02:15:01;;;;;;;3.80;2.57;;;24.90;52.50;;;;;;4887068;29;20448;-73
2023/07/15 02:17:26;;;;;;;2.87;2.77;;;24.80;52.30;;;;;;4888917;29;20480;-73
2023/07/15 02:41:09;;;;;;;2.60;2.60;;;24.70;52.30;;;;;;4868821;29;20460;-73
2023/07/15 02:43:35;;;;;;;2.40;2.30;;;24.60;52.20;;;;;;4857455;29;20450;-73
2023/07/15 02:46:00;;;;;;;2.67;2.67;;;24.60;52.30;;;;;;4875193;29;20565;-73
2023/07/15 02:48:26;;;;;;;2.30;2.20;;;24.60;52.30;;;;;;4879582;29;20248;-73
2023/07/15 02:50:52;;;;;;;2.50;2.40;;;24.60;52.30;;;;;;4872945;29;20725;-73
2023/07/15 02:53:18;;;;;;;2.40;2.30;;;24.60;52.40;;;;;;4878297;29;20637;-73
2023/07/15 02:55:44;;;;;;;2.20;2.20;;;24.60;52.30;;;;;;4878207;29;20532;-73
2023/07/15 02:58:09;;;;;;;2.40;2.40;;;24.60;52.30;;;;;;4878247;29;20540;-73
2023/07/15 03:00:36;;;;;;;2.07;2.07;;;24.70;52.20;;;;;;4870906;29;20201;-73
2023/07/15 03:03:02;;;;;;;2.40;2.37;;;24.60;52.30;;;;;;4873985;29;20189;-73
2023/07/15 03:05:28;;;;;;;2.30;2.30;;;24.60;52.40;;;;;;4877225;29;20486;-72
2023/07/15 03:07:54;;;;;;;5.90;2.37;;;24.60;52.30;;;;;;4868382;29;20959;-74
2023/07/15 03:10:20;;;;;;;2.80;2.40;;;24.50;52.10;;;;;;4874916;29;20288;-73
2023/07/15 03:12:48;;;;;;;2.50;2.30;;;24.60;52.50;;;;;;4875208;29;20245;-73
2023/07/15 03:15:14;;;;;;;2.30;2.30;;;24.60;52.30;;;;;;4866842;29;21023;-73
2023/07/15 03:17:40;;;;;;;2.70;2.60;;;24.60;52.30;;;;;;4873874;29;20491;-73
2023/07/15 03:20:14;;;;;;;3.67;2.20;;;24.50;52.00;;;;;;4876187;29;20457;-72
2023/07/15 03:22:40;;;;;;;2.50;2.37;;;24.50;52.40;;;;;;4874117;29;20544;-73
2023/07/15 03:25:06;;;;;;;2.27;2.27;;;24.50;52.30;;;;;;4892365;29;20412;-73
2023/07/15 03:27:32;;;;;;;3.00;2.80;;;24.60;52.20;;;;;;4896200;29;20463;-73
2023/07/15 03:29:57;;;;;;;3.73;2.30;;;24.60;52.30;;;;;;4898622;29;20535;-73
2023/07/15 03:32:23;;;;;;;2.40;2.40;;;24.50;52.30;;;;;;4889295;29;20212;-73
2023/07/15 03:34:49;;;;;;;2.17;2.07;;;24.60;52.40;;;;;;4896127;29;20204;-73
2023/07/15 03:37:15;;;;;;;2.43;2.33;;;24.50;52.30;;;;;;4886597;29;20655;-73
2023/07/15 03:39:40;;;;;;;2.70;2.60;;;24.50;52.30;;;;;;4891663;29;20437;-73
2023/07/15 03:42:06;;;;;;;2.40;2.27;;;24.50;52.30;;;;;;4892355;29;20739;-73
2023/07/15 03:44:32;;;;;;;2.13;2.13;;;24.50;52.50;;;;;;4897717;29;20211;-73
2023/07/15 03:46:57;;;;;;;2.77;2.50;;;24.50;52.60;;;;;;4882954;29;20484;-73
2023/07/15 03:49:24;;;;;;;2.23;2.23;;;24.50;52.60;;;;;;4893742;29;20188;-73
2023/07/15 03:51:50;;;;;;;4.33;3.33;;;24.50;52.80;;;;;;4894974;29;20184;-73
2023/07/15 03:54:15;;;;;;;2.73;2.50;;;24.50;52.70;;;;;;4887647;29;20540;-73
2023/07/15 03:56:41;;;;;;;2.53;2.33;;;24.50;52.60;;;;;;4890472;29;20200;-73
2023/07/15 03:59:06;;;;;;;3.13;2.97;;;24.40;52.90;;;;;;4889126;29;20204;-73
2023/07/15 04:01:34;;;;;;;2.50;2.40;;;24.50;53.20;;;;;;4895406;29;20198;-72
2023/07/15 04:04:04;;;;;;;2.57;2.57;;;24.40;53.00;;;;;;4887562;29;20662;-74
2023/07/15 04:06:32;;;;;;;2.57;2.47;;;24.40;53.20;;;;;;4899953;29;20447;-72
2023/07/15 04:08:57;;;;;;;2.20;2.13;;;24.30;53.20;;;;;;4888512;29;20561;-73
2023/07/15 04:11:23;;;;;;;2.70;2.60;;;24.30;53.20;;;;;;4890383;29;20425;-73
2023/07/15 04:13:48;;;;;;;2.67;2.57;;;24.40;53.40;;;;;;4876901;29;20251;-73
2023/07/15 04:16:14;;;;;;;2.67;2.67;;;24.30;53.20;;;;;;4891967;29;20207;-73
2023/07/15 04:18:40;;;;;;;3.00;2.80;;;24.30;53.50;;;;;;4880748;29;20222;-73
2023/07/15 04:21:06;;;;;;;2.17;2.07;;;24.30;53.50;;;;;;4863773;29;20197;-73
2023/07/15 04:23:32;;;;;;;2.20;2.20;;;24.30;53.60;;;;;;4888513;29;20228;-74
2023/07/15 04:25:58;;;;;;;2.13;2.03;;;24.20;53.50;;;;;;4887227;29;20496;-72
2023/07/15 04:28:24;;;;;;;2.30;2.20;;;24.20;53.90;;;;;;4892830;29;20517;-73
2023/07/15 04:30:50;;;;;;;3.70;2.10;;;24.30;53.70;;;;;;4890621;29;20425;-74
2023/07/15 04:33:16;;;;;;;2.10;2.10;;;24.40;53.60;;;;;;4897333;29;20190;-73
2023/07/15 04:35:43;;;;;;;2.73;2.50;;;24.30;53.70;;;;;;4889246;29;20507;-73
2023/07/15 04:38:10;;;;;;;2.60;2.50;;;24.30;53.90;;;;;;4898130;29;20904;-74
2023/07/15 04:40:35;;;;;;;2.33;2.23;;;24.30;54.20;;;;;;4895498;29;20515;-73
2023/07/15 04:43:01;;;;;;;2.20;2.20;;;24.30;54.00;;;;;;4895302;29;20675;-73
2023/07/15 04:45:29;;;;;;;3.13;2.30;;;24.40;53.90;;;;;;4893061;29;20196;-73
2023/07/15 04:47:55;;;;;;;2.57;2.57;;;24.40;54.20;;;;;;4894345;29;20299;-73
2023/07/15 04:50:20;;;;;;;3.00;2.80;;;24.60;53.90;;;;;;4898286;29;20507;-73
2023/07/15 04:52:46;;;;;;;2.37;2.27;;;24.60;54.50;;;;;;4870714;29;20193;-73
2023/07/15 04:55:12;;;;;;;2.20;2.20;;;25.00;53.90;;;;;;4888177;29;20189;-73
2023/07/15 04:57:37;;;;;;;2.23;2.13;;;25.20;53.40;;;;;;4888905;29;20664;-73
2023/07/15 05:00:04;;;;;;;2.30;2.20;;;25.30;53.30;;;;;;4893481;29;20863;-74
2023/07/15 05:02:29;;;;;;;1.90;1.90;;;25.50;53.50;;;;;;4886703;29;20550;-73
2023/07/15 05:04:55;;;;;;;2.03;1.93;;;25.50;53.10;;;;;;4890007;29;21051;-73
2023/07/15 05:07:21;;;;;;;2.27;2.27;;;25.70;52.70;;;;;;4875629;29;20848;-72
2023/07/15 05:09:49;;;;;;;2.93;2.83;;;25.80;52.40;;;;;;4878593;29;20223;-74
2023/07/15 05:12:15;;;;;;;2.43;2.37;;;25.80;52.80;;;;;;4891838;29;20450;-74
2023/07/15 05:14:40;;;;;;;2.50;2.17;;;25.80;52.90;;;;;;4888872;29;21173;-73
2023/07/15 05:17:09;;;;;;;2.07;1.80;;;25.90;52.90;;;;;;4886277;29;20528;-73
2023/07/15 05:19:34;;;;;;;2.60;2.33;;;26.10;52.70;;;;;;4896730;29;20598;-74
2023/07/15 05:22:00;;;;;;;2.10;2.10;;;26.10;52.80;;;;;;4890101;29;20507;-73
2023/07/15 05:24:28;;;;;;;4.93;2.40;;;26.30;52.50;;;;;;4894513;29;20252;-73
2023/07/15 05:26:55;;;;;;;1.77;1.77;;;26.40;52.30;;;;;;4887400;29;20200;-73
2023/07/15 05:29:22;;;;;;;3.90;2.20;;;26.50;52.40;;;;;;4895043;29;20485;-74
2023/07/15 05:31:48;;;;;;;2.00;2.00;;;26.40;52.50;;;;;;4865786;29;20678;-73
2023/07/15 05:34:13;;;;;;;2.90;2.80;;;26.70;52.20;;;;;;4895085;29;20444;-73
2023/07/15 05:36:39;;;;;;;2.43;2.30;;;26.70;52.20;;;;;;4891606;29;20203;-73
2023/07/15 05:39:05;;;;;;;2.40;2.30;;;26.80;52.20;;;;;;4891887;29;20407;-74
2023/07/15 05:41:30;;;;;;;2.30;2.23;;;26.80;52.20;;;;;;4891251;29;20200;-72
2023/07/15 05:43:56;;;;;;;2.60;2.50;;;27.00;52.10;;;;;;4893662;29;20189;-73
2023/07/15 05:56:28;;;;;;;2.20;2.20;;;27.40;51.60;;;;;;4887054;29;20814;-75
2023/07/15 06:02:28;;;;;;;2.47;2.40;;;28.00;51.10;;;;;;4886820;29;20438;-73
2023/07/15 06:21:44;;;;;;;2.10;1.77;;;29.80;49.50;;;;;;4889042;29;20442;-73
2023/07/15 06:34:56;;;;;;;2.60;2.10;;;30.90;48.60;;;;;;4886282;29;20432;-73
2023/07/15 06:47:28;;;;;;;2.50;2.40;;;31.60;47.90;;;;;;4895050;29;20526;-71
2023/07/15 06:49:53;;;;;;;2.07;2.07;;;31.20;48.30;;;;;;4889397;29;20555;-72
2023/07/15 06:52:19;;;;;;;2.50;2.40;;;30.90;48.40;;;;;;4870990;29;20231;-72
2023/07/15 06:54:45;;;;;;;2.87;2.40;;;30.80;48.50;;;;;;4890621;29;20203;-72
2023/07/15 07:03:56;;;;;;;2.50;2.30;;;31.00;49.10;;;;;;4890560;29;20459;-72
2023/07/15 07:19:50;;;;;;;2.50;2.30;;;30.90;48.40;;;;;;4892640;29;20857;-72
2023/07/15 07:22:15;;;;;;;2.27;2.17;;;30.60;48.90;;;;;;4877702;29;20433;-74
2023/07/15 07:24:41;;;;;;;2.20;2.20;;;30.80;49.10;;;;;;4884602;29;20838;-73
2023/07/15 07:27:07;;;;;;;2.37;2.37;;;30.70;49.40;;;;;;4886014;29;20577;-73
2023/07/15 07:40:26;;;;;;;2.13;2.13;;;28.70;51.50;;;;;;4871332;29;20901;-73
2023/07/15 07:42:52;;;;;;;6.00;2.40;;;28.60;51.30;;;;;;4868220;29;20454;-72
2023/07/15 07:45:18;;;;;;;3.60;3.33;;;28.30;51.70;;;;;;4873520;29;20987;-73
2023/07/15 07:47:43;;;;;;;2.87;2.70;;;28.00;52.00;;;;;;4875076;29;20217;-72
2023/07/15 07:50:09;;;;;;;2.20;2.20;;;27.80;52.40;;;;;;4875626;29;20185;-73
2023/07/15 07:56:11;;;;;;;2.40;2.30;;;27.70;52.90;;;;;;4871052;29;21069;-73
2023/07/15 08:05:23;;;;;;;2.53;2.43;;;27.90;53.00;;;;;;4873189;29;20837;-73
2023/07/15 08:07:49;;;;;;;2.90;2.80;;;27.90;52.90;;;;;;4861780;29;20488;-72
2023/07/15 08:10:17;;;;;;;2.67;2.47;;;27.80;53.10;;;;;;4842580;29;20461;-73
2023/07/15 08:12:43;;;;;;;2.57;2.47;;;27.70;53.80;;;;;;4858415;29;20449;-72
2023/07/15 08:15:12;;;;;;;2.63;2.50;;;27.60;53.60;;;;;;4862605;29;20496;-73
2023/07/15 08:17:37;;;;;;;2.87;2.77;;;27.50;53.70;;;;;;4869366;29;20211;-72
2023/07/15 08:20:04;;;;;;;2.97;2.90;;;27.50;53.90;;;;;;4876834;29;20465;-73
2023/07/15 08:22:30;;;;;;;5.43;2.73;;;27.70;54.00;;;;;;4869877;29;20189;-74
2023/07/15 08:24:55;;;;;;;2.50;2.50;;;28.00;53.80;;;;;;4880718;29;20434;-73
2023/07/15 08:27:21;;;;;;;2.83;2.60;;;28.50;54.00;;;;;;4866821;29;20272;-73
2023/07/15 08:29:49;;;;;;;2.50;2.40;;;28.80;53.50;;;;;;4864543;29;20193;-73
2023/07/15 08:32:15;;;;;;;2.50;2.30;;;29.00;53.20;;;;;;4872537;29;20223;-72
2023/07/15 08:34:59;;;;;;;2.80;2.70;;;28.80;53.10;;;;;;4875193;29;20959;-73
2023/07/15 08:37:26;;;;;;;3.03;2.60;;;28.70;53.30;;;;;;4891820;29;20207;-74
2023/07/15 08:39:51;;;;;;;2.50;2.40;;;28.40;53.60;;;;;;4874927;29;20491;-73
2023/07/15 08:42:21;;;;;;;2.27;2.17;;;28.40;54.10;;;;;;4874476;29;20779;-74
2023/07/15 08:44:48;;;;;;;2.43;2.30;;;28.20;54.50;;;;;;4898243;29;20184;-73
2023/07/15 08:47:21;;;;;;;2.40;2.40;;;28.10;54.30;;;;;;4894573;29;20543;-74
2023/07/15 08:49:52;;;;;;;2.63;2.63;;;28.10;54.20;;;;;;4879567;29;20429;-74
2023/07/15 08:52:19;;;;;;;2.47;2.47;;;27.80;54.80;;;;;;4895025;29;21003;-74
2023/07/15 08:54:48;;;;;;;3.83;3.00;;;27.70;55.00;;;;;;4873325;29;20467;-73
2023/07/15 08:57:17;;;;;;;2.90;2.70;;;27.50;55.20;;;;;;4879600;29;20444;-73
2023/07/15 08:59:43;;;;;;;2.73;2.53;;;27.50;55.70;;;;;;4874689;29;20479;-73
2023/07/15 09:02:08;;;;;;;3.17;2.97;;;27.10;56.00;;;;;;4896871;29;20459;-73
2023/07/15 09:04:34;;;;;;;2.50;2.30;;;26.90;56.80;;;;;;4872995;29;20965;-73
2023/07/15 09:07:00;;;;;;;2.87;2.67;;;26.60;57.70;;;;;;4900124;29;20212;-73
2023/07/15 09:09:37;;;;;;;2.57;2.57;;;26.40;58.30;;;;;;4886833;29;20202;-73
2023/07/15 09:12:07;;;;;;;2.57;2.53;;;26.10;59.20;;;;;;4895036;29;20180;-73
2023/07/15 09:14:43;;;;;;;3.37;3.10;;;26.00;60.70;;;;;;4878180;29;20472;-74
2023/07/15 09:17:15;;;;;;;2.57;2.47;;;25.40;68.10;;;;;;4896048;29;20434;-74
2023/07/15 09:19:45;;;;;;;5.40;3.20;;;25.00;74.70;;;;;;4879560;29;20457;-72
2023/07/15 09:22:10;;;;;;;3.73;3.43;;;24.10;90.00;;;;;;4891181;29;20445;-72
2023/07/15 09:24:39;;;;;;;4.20;3.80;;;23.40;99.90;;;;;;4891689;29;20462;-74
2023/07/15 09:27:06;;;;;;;3.47;3.07;;;22.70;99.90;;;;;;4889921;29;20264;-73
2023/07/15 09:29:32;;;;;;;3.60;3.60;;;22.10;99.90;;;;;;4872211;29;20449;-72
2023/07/15 09:31:58;;;;;;;3.87;3.77;;;21.70;99.90;;;;;;4889257;29;20443;-72
2023/07/15 09:34:25;;;;;;;4.50;4.40;;;21.30;99.90;;;;;;4890615;29;20446;-74
2023/07/15 09:36:52;;;;;;;3.70;3.60;;;21.00;99.90;;;;;;4886267;29;20951;-73
2023/07/15 09:39:22;;;;;;;4.93;4.53;;;20.90;99.90;;;;;;4880659;29;20443;-72
2023/07/15 09:42:07;;;;;;;4.73;4.53;;;20.80;99.90;;;;;;4878015;29;20839;-74
2023/07/15 09:44:41;;;;;;;6.07;4.10;;;20.70;99.90;;;;;;4877119;29;20480;-72
2023/07/15 09:47:07;;;;;;;3.83;3.73;;;20.70;99.90;;;;;;4882651;29;20470;-74
2023/07/15 09:49:34;;;;;;;4.27;4.13;;;20.70;99.90;;;;;;4885819;29;20976;-73
2023/07/15 09:52:03;;;;;;;4.20;4.00;;;20.60;99.90;;;;;;4886574;29;20612;-73
2023/07/15 09:54:31;;;;;;;4.97;4.67;;;20.50;99.90;;;;;;4886138;29;20472;-73
2023/07/15 09:57:03;;;;;;;4.47;4.37;;;20.60;99.90;;;;;;4889101;29;22039;-72
2023/07/15 09:59:34;;;;;;;4.70;4.50;;;20.50;99.90;;;;;;4879104;29;20453;-72
2023/07/15 10:02:08;;;;;;;5.00;4.63;;;20.50;99.90;;;;;;4888240;29;20940;-73
2023/07/15 10:04:44;;;;;;;4.13;3.93;;;20.60;99.90;;;;;;4884898;29;20503;-73
2023/07/15 10:07:11;;;;;;;4.60;4.40;;;20.60;99.90;;;;;;4882986;29;20958;-72
2023/07/15 10:09:38;;;;;;;4.43;4.23;;;20.70;99.90;;;;;;4887820;29;20952;-73
2023/07/15 10:12:04;;;;;;;4.30;3.90;;;20.80;99.90;;;;;;4884334;29;20452;-71
2023/07/15 10:14:31;;;;;;;4.63;4.43;;;21.00;99.90;;;;;;4882001;29;20464;-73
2023/07/15 10:17:10;;;;;;;4.27;4.10;;;21.20;99.90;;;;;;4889384;29;20488;-73
2023/07/15 10:19:46;;;;;;;4.73;3.90;;;21.40;99.90;;;;;;4887292;29;20456;-73
2023/07/15 10:22:14;;;;;;;3.60;3.50;;;21.50;99.90;;;;;;4881907;29;20928;-72
2023/07/15 10:24:54;;;;;;;4.73;4.53;;;21.60;99.90;;;;;;4877817;29;20492;-72
2023/07/15 10:27:20;;;;;;;4.80;4.33;;;21.70;99.90;;;;;;4889081;29;20979;-73
2023/07/15 10:29:46;;;;;;;3.17;3.17;;;21.70;99.90;;;;;;4885766;29;20470;-72
2023/07/15 10:32:13;;;;;;;5.60;5.23;;;21.70;99.90;;;;;;4884103;29;20460;-70
2023/07/15 10:34:50;;;;;;;4.17;3.97;;;21.70;99.90;;;;;;4881738;29;20230;-73
2023/07/15 10:37:17;;;;;;;3.77;3.67;;;21.70;99.90;;;;;;4889365;29;20425;-73
2023/07/15 10:39:45;;;;;;;3.40;3.30;;;21.90;99.90;;;;;;4879062;29;20575;-73
2023/07/15 10:42:12;;;;;;;3.60;3.50;;;22.00;99.90;;;;;;4863991;29;21247;-72
2023/07/15 10:44:41;;;;;;;4.00;3.80;;;22.10;99.90;;;;;;4883057;29;20979;-73
2023/07/15 10:47:08;;;;;;;3.17;3.10;;;22.20;99.90;;;;;;4888377;29;20464;-74
2023/07/15 10:49:35;;;;;;;3.40;3.30;;;22.30;99.90;;;;;;4862732;29;20455;-73
2023/07/15 10:52:05;;;;;;;2.93;2.83;;;22.60;99.90;;;;;;4887653;29;20438;-73
2023/07/15 10:54:35;;;;;;;2.47;2.37;;;22.90;99.90;;;;;;4883720;29;20452;-72
2023/07/15 10:57:09;;;;;;;2.63;2.60;;;23.40;99.90;;;;;;4869116;29;20510;-72
2023/07/15 10:59:39;;;;;;;2.73;2.73;;;24.10;99.90;;;;;;4880939;29;20491;-73
2023/07/15 11:02:05;;;;;;;3.10;3.00;;;24.30;99.90;;;;;;4890305;29;20424;-72
2023/07/15 11:04:32;;;;;;;2.30;2.30;;;24.20;99.90;;;;;;4888848;29;20467;-72
2023/07/15 11:07:02;;;;;;;2.50;2.50;;;24.00;99.90;;;;;;4866977;29;20453;-72
2023/07/15 11:09:29;;;;;;;3.00;2.80;;;23.90;99.90;;;;;;4885845;29;20435;-72
2023/07/15 11:11:55;;;;;;;2.70;2.60;;;23.80;99.90;;;;;;4879526;29;20449;-72
2023/07/15 11:14:29;;;;;;;2.50;2.50;;;23.70;99.90;;;;;;4879088;29;20455;-74
2023/07/15 11:16:58;;;;;;;1.90;1.90;;;23.70;99.90;;;;;;4884313;29;20476;-72
2023/07/15 11:19:27;;;;;;;3.00;2.90;;;23.80;99.90;;;;;;4868639;29;20444;-73
2023/07/15 11:21:54;;;;;;;2.07;2.07;;;23.90;99.90;;;;;;4868765;29;20487;-73
2023/07/15 11:24:24;;;;;;;2.77;2.67;;;24.00;99.90;;;;;;4886503;29;20489;-74
2023/07/15 11:26:51;;;;;;;2.57;2.47;;;24.20;99.90;;;;;;4878233;29;20487;-75
2023/07/15 11:29:24;;;;;;;2.40;2.40;;;24.20;99.90;;;;;;4885908;29;20443;-74
2023/07/15 11:31:55;;;;;;;2.40;2.40;;;24.50;99.90;;;;;;4876257;29;20430;-73
2023/07/15 11:34:23;;;;;;;2.47;2.40;;;24.60;99.90;;;;;;4882703;29;20437;-75
2023/07/15 11:36:50;;;;;;;2.43;2.23;;;25.00;99.90;;;;;;4896926;29;20451;-74
2023/07/15 11:39:17;;;;;;;2.70;2.70;;;25.10;99.90;;;;;;4891184;29;20451;-74
2023/07/15 11:41:44;;;;;;;1.93;1.93;;;25.10;99.90;;;;;;4882357;29;21219;-73
2023/07/15 11:44:10;;;;;;;3.40;3.30;;;25.30;99.90;;;;;;4869966;29;20495;-73
2023/07/15 11:46:37;;;;;;;2.57;2.57;;;26.40;99.90;;;;;;4888771;29;20450;-74
2023/07/15 11:49:03;;;;;;;2.20;2.20;;;27.80;99.90;;;;;;4863642;29;21042;-74
2023/07/15 11:51:31;;;;;;;2.70;2.60;;;28.10;99.90;;;;;;4888043;29;21021;-74
2023/07/15 11:53:57;;;;;;;2.50;2.50;;;29.00;99.90;;;;;;4861186;29;20484;-74
2023/07/15 11:56:47;;;;;;;2.60;2.53;;;29.30;99.90;;;;;;4882476;29;20483;-74
2023/07/15 11:59:24;;;;;;;2.50;2.30;;;29.60;99.90;;;;;;4879817;29;20263;-74
2023/07/15 12:01:50;;;;;;;2.87;2.77;;;29.20;99.90;;;;;;4875909;29;20467;-73
2023/07/15 12:04:17;;;;;;;2.20;2.20;;;28.90;99.90;;;;;;4882965;29;20505;-72
2023/07/15 12:10:07;;;;;;;2.10;2.10;;;28.10;99.90;;;;;;4886324;29;20472;-74
2023/07/15 12:12:32;;;;;;;2.90;2.83;;;27.80;99.90;;;;;;4876244;29;20573;-74
2023/07/15 12:14:58;;;;;;;2.30;2.30;;;27.50;99.90;;;;;;4878193;29;20855;-75
2023/07/15 12:17:23;;;;;;;2.60;2.60;;;27.20;99.90;;;;;;4885164;29;20200;-74
2023/07/15 12:19:49;;;;;;;3.10;3.00;;;27.00;99.90;;;;;;4890523;29;20200;-77
2023/07/15 12:22:14;;;;;;;3.00;2.90;;;27.00;99.90;;;;;;4884448;29;20868;-74
2023/07/15 12:24:40;;;;;;;4.07;3.97;;;26.60;99.90;;;;;;4884292;29;20207;-78
2023/07/15 12:27:06;;;;;;;4.40;3.90;;;26.30;99.90;;;;;;4878577;29;20185;-75
2023/07/15 12:29:31;;;;;;;3.37;3.37;;;26.00;99.90;;;;;;4882186;29;20205;-74
2023/07/15 12:31:57;;;;;;;2.87;2.87;;;25.70;99.90;;;;;;4881182;29;20674;-74
2023/07/15 12:34:22;;;;;;;3.30;3.30;;;25.50;99.90;;;;;;4880970;29;20219;-75
2023/07/15 12:36:48;;;;;;;3.40;3.30;;;25.30;99.90;;;;;;4880470;29;20191;-76
2023/07/15 12:39:16;;;;;;;8.00;4.60;;;25.10;99.90;;;;;;4881987;29;20597;-77
2023/07/15 12:41:42;;;;;;;3.10;3.10;;;25.10;99.90;;;;;;4860994;29;20684;-74
2023/07/15 12:44:12;;;;;;;2.73;2.73;;;25.20;99.90;;;;;;4885394;29;20430;-75
2023/07/15 12:46:37;;;;;;;3.53;3.43;;;25.30;99.90;;;;;;4880383;29;20581;-74
2023/07/15 12:49:03;;;;;;;3.37;3.20;;;25.20;99.90;;;;;;4884096;29;20494;-74
2023/07/15 12:51:29;;;;;;;3.00;2.90;;;25.30;99.90;;;;;;4860440;29;20339;-73
2023/07/15 12:53:54;;;;;;;3.10;3.00;;;25.40;99.90;;;;;;4882771;29;20752;-75
2023/07/15 12:56:21;;;;;;;2.93;2.93;;;25.40;99.90;;;;;;4891220;29;20200;-74
2023/07/15 12:58:47;;;;;;;3.70;3.50;;;25.50;99.90;;;;;;4871774;29;20209;-75
2023/07/15 13:01:13;;;;;;;3.60;3.60;;;25.50;99.90;;;;;;4885343;29;20565;-76
2023/07/15 13:03:39;;;;;;;5.73;5.50;;;25.50;99.90;;;;;;4862909;29;20259;-77
2023/07/15 13:06:05;;;;;;;3.67;3.67;;;25.50;99.90;;;;;;4878928;29;20200;-76
2023/07/15 13:08:31;;;;;;;4.97;4.87;;;25.70;99.90;;;;;;4882954;29;20213;-77
2023/07/15 13:10:57;;;;;;;3.67;3.57;;;25.90;99.90;;;;;;4881126;29;20509;-74
2023/07/15 13:13:25;;;;;;;3.20;3.20;;;26.60;99.90;;;;;;4866491;29;20188;-75
2023/07/15 13:15:50;;;;;;;3.37;3.37;;;27.20;99.90;;;;;;4885251;29;20644;-73
2023/07/15 13:18:16;;;;;;;3.50;3.50;;;28.20;99.90;;;;;;4882305;29;20545;-73
2023/07/15 13:20:41;;;;;;;3.53;3.43;;;29.20;99.90;;;;;;4879521;29;20204;-74
2023/07/15 13:23:08;;;;;;;3.10;3.03;;;29.60;99.90;;;;;;4876516;29;20204;-73
2023/07/15 13:25:33;;;;;;;3.13;3.13;;;29.70;99.90;;;;;;4887991;29;20668;-74
2023/07/15 13:27:59;;;;;;;3.30;3.20;;;29.90;99.90;;;;;;4884792;29;20475;-74
2023/07/15 13:30:25;;;;;;;3.00;3.00;;;31.00;99.90;;;;;;4886188;29;20184;-74
2023/07/15 13:32:51;;;;;;;3.57;3.50;;;31.80;99.90;;;;;;4881142;29;20263;-73
2023/07/15 13:35:16;;;;;;;3.43;3.33;;;32.60;99.90;;;;;;4861430;29;20528;-76
2023/07/15 13:37:42;;;;;;;3.07;3.03;;;33.00;99.90;;;;;;4880761;29;20235;-73
2023/07/15 13:40:09;;;;;;;3.50;3.50;;;32.50;99.90;;;;;;4880299;29;20224;-72
2023/07/15 13:42:35;;;;;;;4.00;3.70;;;31.90;99.90;;;;;;4882239;29;20209;-74
2023/07/15 13:45:00;;;;;;;3.40;3.40;;;31.50;99.90;;;;;;4890247;29;20441;-73
2023/07/15 13:47:26;;;;;;;3.27;3.27;;;31.90;99.90;;;;;;4883948;29;20251;-73
2023/07/15 13:49:51;;;;;;;3.43;3.43;;;32.30;99.90;;;;;;4863352;29;20333;-72
2023/07/15 13:52:17;;;;;;;3.30;3.10;;;32.50;99.90;;;;;;4878573;29;20299;-74
2023/07/15 13:54:43;;;;;;;3.87;3.73;;;32.40;99.90;;;;;;4883019;29;20195;-73
2023/07/15 13:57:08;;;;;;;3.60;3.33;;;32.20;99.90;;;;;;4883330;29;20200;-74
2023/07/15 13:59:34;;;;;;;3.80;3.70;;;31.20;99.90;;;;;;4884365;29;20668;-73
2023/07/15 14:02:00;;;;;;;4.80;4.40;;;30.20;99.90;;;;;;4882676;29;20222;-74
2023/07/15 14:04:25;;;;;;;3.60;3.50;;;29.30;99.90;;;;;;4883663;29;20176;-74
2023/07/15 14:06:51;;;;;;;4.47;4.17;;;28.30;99.90;;;;;;4864698;29;20227;-73
2023/07/15 14:09:17;;;;;;;4.23;4.07;;;27.70;99.90;;;;;;4886512;29;20188;-74
2023/07/15 14:11:44;;;;;;;4.33;4.10;;;27.60;99.90;;;;;;4885727;29;20609;-73
2023/07/15 14:14:11;;;;;;;3.90;3.90;;;27.60;99.90;;;;;;4886617;29;20437;-73
2023/07/15 14:16:36;;;;;;;4.30;4.10;;;27.50;99.90;;;;;;4881557;29;20773;-73
2023/07/15 14:19:03;;;;;;;4.20;4.10;;;27.40;99.90;;;;;;4880733;29;20452;-73
2023/07/15 14:21:29;;;;;;;3.90;3.80;;;27.50;99.90;;;;;;4878527;29;20207;-74
2023/07/15 14:23:56;;;;;;;3.87;3.80;;;27.40;99.90;;;;;;4884223;29;20440;-73
2023/07/15 14:26:21;;;;;;;3.80;3.80;;;27.90;99.90;;;;;;4874986;29;21012;-72
2023/07/15 14:28:47;;;;;;;3.77;3.67;;;28.10;99.90;;;;;;4861535;29;20476;-74
2023/07/15 14:31:13;;;;;;;4.40;4.30;;;28.50;99.90;;;;;;4877324;29;20251;-74
2023/07/15 14:33:38;;;;;;;3.50;3.30;;;29.20;99.90;;;;;;4882837;29;20276;-73
2023/07/15 14:36:04;;;;;;;3.50;3.40;;;29.70;99.90;;;;;;4867281;29;20232;-72
2023/07/15 14:38:30;;;;;;;3.37;3.37;;;29.70;99.90;;;;;;4888959;29;20193;-72
2023/07/15 14:40:55;;;;;;;3.00;2.90;;;29.70;99.90;;;;;;4883445;29;20931;-73
2023/07/15 14:43:21;;;;;;;4.23;4.03;;;29.70;99.90;;;;;;4883264;29;20261;-74
2023/07/15 14:45:46;;;;;;;3.47;3.47;;;29.30;99.90;;;;;;4889244;29;20236;-73
2023/07/15 14:48:12;;;;;;;3.77;3.57;;;28.80;99.90;;;;;;4883881;29;20216;-73
2023/07/15 14:50:38;;;;;;;4.07;3.87;;;28.20;99.90;;;;;;4880399;29;20503;-73
2023/07/15 14:53:07;;;;;;;3.63;3.53;;;28.10;99.90;;;;;;4887930;29;20520;-73
2023/07/15 14:55:36;;;;;;;4.07;3.87;;;27.60;99.90;;;;;;4882225;29;20188;-73
2023/07/15 14:58:02;;;;;;;3.47;3.47;;;27.40;99.90;;;;;;4889339;29;20432;-73
2023/07/15 15:00:27;;;;;;;3.50;3.40;;;27.40;99.90;;;;;;4882672;29;20671;-72
2023/07/15 15:02:54;;;;;;;3.47;3.37;;;27.30;99.90;;;;;;4880402;29;20486;-72
2023/07/15 15:05:19;;;;;;;3.00;3.00;;;27.30;99.90;;;;;;4871613;29;20196;-74
2023/07/15 15:07:45;;;;;;;3.30;3.30;;;27.20;99.90;;;;;;4884663;29;20881;-73